createdAt,value
2023-02-13T00:02:19.217Z,2.90
2023-02-13T00:04:46.338Z,2.90
2023-02-13T00:07:17.318Z,2.90
2023-02-13T00:09:46.621Z,2.80
2023-02-13T00:12:13.594Z,2.90
2023-02-13T00:17:13.379Z,2.90
2023-02-13T00:18:34.804Z,2.90
2023-02-13T00:21:07.734Z,2.90
2023-02-13T00:24:53.966Z,2.90
2023-02-13T00:27:29.288Z,2.90
2023-02-13T00:30:04.286Z,3.00
2023-02-13T00:32:32.751Z,3.00
2023-02-13T00:35:04.359Z,3.00
2023-02-13T00:37:33.528Z,3.00
2023-02-13T00:40:04.868Z,2.90
2023-02-13T00:42:34.323Z,2.90
2023-02-13T00:45:07.383Z,2.90
2023-02-13T00:47:34.474Z,2.90
2023-02-13T00:50:01.603Z,2.90
2023-02-13T00:52:28.702Z,2.90
2023-02-13T00:55:25.370Z,2.80
2023-02-13T00:58:02.689Z,2.80
2023-02-13T01:00:34.422Z,2.80
2023-02-13T01:03:01.504Z,2.80
2023-02-13T01:05:31.658Z,2.80
2023-02-13T01:07:58.755Z,2.80
2023-02-13T01:10:26.944Z,2.70
2023-02-13T01:12:55.099Z,2.70
2023-02-13T01:15:23.254Z,2.80
2023-02-13T01:17:50.429Z,2.80
2023-02-13T01:20:17.759Z,2.80
2023-02-13T01:22:47.893Z,2.80
2023-02-13T01:25:14.951Z,2.80
2023-02-13T01:27:42.039Z,2.80
2023-02-13T01:30:13.856Z,2.80
2023-02-13T01:32:42.728Z,2.80
2023-02-13T01:35:11.228Z,2.70
2023-02-13T01:37:39.642Z,2.70
2023-02-13T01:40:09.245Z,2.70
2023-02-13T01:43:48.884Z,2.70
2023-02-13T01:46:38.934Z,2.60
2023-02-13T01:49:13.520Z,2.60
2023-02-13T01:51:47.943Z,2.60
2023-02-13T01:54:31.365Z,2.60
2023-02-13T01:57:07.730Z,2.60
2023-02-13T01:59:49.460Z,2.60
2023-02-13T02:02:17.462Z,2.60
2023-02-13T02:04:47.290Z,2.70
2023-02-13T02:07:27.550Z,2.70
2023-02-13T02:09:59.832Z,2.70
2023-02-13T02:12:35.808Z,2.70
2023-02-13T02:15:12.209Z,2.80
2023-02-13T02:17:39.558Z,2.70
2023-02-13T02:20:31.697Z,2.80
2023-02-13T02:23:30.648Z,2.80
2023-02-13T02:26:12.523Z,2.80
2023-02-13T02:28:40.310Z,2.80
2023-02-13T02:31:30.403Z,2.80
2023-02-13T02:34:13.031Z,2.90
2023-02-13T02:37:10.887Z,2.80
2023-02-13T02:40:14.756Z,2.80
2023-02-13T02:43:02.434Z,2.80
2023-02-13T02:46:06.408Z,2.80
2023-02-13T02:49:07.261Z,2.80
2023-02-13T02:51:43.295Z,2.90
2023-02-13T02:54:42.094Z,2.80
2023-02-13T02:57:50.438Z,2.90
2023-02-13T03:00:39.584Z,2.90
2023-02-13T03:03:40.114Z,2.90
2023-02-13T03:06:20.610Z,2.80
2023-02-13T03:09:20.738Z,2.90
2023-02-13T03:12:12.738Z,2.90
2023-02-13T03:14:49.283Z,2.90
2023-02-13T03:17:41.172Z,2.90
2023-02-13T03:20:36.960Z,2.90
2023-02-13T03:23:19.658Z,2.90
2023-02-13T03:26:20.747Z,3.00
2023-02-13T03:29:30.132Z,3.00
2023-02-13T03:32:23.340Z,3.00
2023-02-13T03:35:40.325Z,3.00
2023-02-13T03:38:55.935Z,3.00
2023-02-13T03:41:38.785Z,2.90
2023-02-13T03:44:19.290Z,2.90
2023-02-13T03:46:55.647Z,2.90
2023-02-13T03:49:52.548Z,2.90
2023-02-13T03:52:53.439Z,3.00
2023-02-13T03:55:48.852Z,3.00
2023-02-13T03:58:45.129Z,3.00
2023-02-13T04:01:19.754Z,3.00
2023-02-13T04:03:56.419Z,3.00
2023-02-13T04:06:53.944Z,2.90
2023-02-13T04:09:37.505Z,2.90
2023-02-13T04:12:11.940Z,2.90
2023-02-13T04:14:48.802Z,2.90
2023-02-13T04:17:32.559Z,2.90
2023-02-13T04:20:08.601Z,2.90
2023-02-13T04:22:47.025Z,2.90
2023-02-13T04:25:18.978Z,2.90
2023-02-13T04:27:46.940Z,2.90
2023-02-13T04:30:17.266Z,2.90
2023-02-13T04:32:44.405Z,2.90
2023-02-13T04:35:15.376Z,3.00
2023-02-13T04:37:48.351Z,3.00
2023-02-13T04:40:15.704Z,3.00
2023-02-13T04:42:42.679Z,2.90
2023-02-13T04:45:11.340Z,2.90
2023-02-13T04:47:38.308Z,2.90
2023-02-13T04:50:07.933Z,2.90
2023-02-13T04:52:35.954Z,3.00
2023-02-13T04:55:03.662Z,2.90
2023-02-13T04:57:32.812Z,2.90
2023-02-13T05:00:03.241Z,3.00
2023-02-13T05:02:31.900Z,2.90
2023-02-13T05:04:58.964Z,2.90
2023-02-13T05:07:26.032Z,2.90
2023-02-13T05:09:57.702Z,3.00
2023-02-13T05:12:25.436Z,2.90
2023-02-13T05:14:52.742Z,2.90
2023-02-13T05:17:19.775Z,2.90
2023-02-13T05:19:46.890Z,2.90
2023-02-13T05:22:35.962Z,2.90
2023-02-13T05:25:09.460Z,2.90
2023-02-13T05:27:36.539Z,2.80
2023-02-13T05:30:04.063Z,2.80
2023-02-13T05:32:31.937Z,2.80
2023-02-13T05:35:04.690Z,2.80
2023-02-13T05:37:32.391Z,2.90
2023-02-13T05:40:03.133Z,2.90
2023-02-13T05:42:30.498Z,2.90
2023-02-13T05:44:57.638Z,2.90
2023-02-13T05:47:24.712Z,2.90
2023-02-13T05:49:52.520Z,2.90
2023-02-13T05:52:20.291Z,2.90
2023-02-13T05:54:49.633Z,2.90
2023-02-13T05:57:20.374Z,2.90
2023-02-13T05:59:47.511Z,2.90
2023-02-13T06:02:37.937Z,2.90
2023-02-13T06:05:08.102Z,2.90
2023-02-13T06:07:35.056Z,2.90
2023-02-13T06:10:11.673Z,2.80
2023-02-13T06:12:38.726Z,2.90
2023-02-13T06:15:07.351Z,2.90
2023-02-13T06:17:42.760Z,2.80
2023-02-13T06:20:15.162Z,2.80
2023-02-13T06:22:47.953Z,2.80
2023-02-13T06:25:23.533Z,2.80
2023-02-13T06:27:55.834Z,2.80
2023-02-13T06:30:23.691Z,2.80
2023-02-13T06:32:55.792Z,2.80
2023-02-13T06:35:28.746Z,2.80
2023-02-13T06:38:01.586Z,2.80
2023-02-13T06:40:29.020Z,2.80
2023-02-13T06:43:02.559Z,2.80
2023-02-13T06:45:31.113Z,2.80
2023-02-13T06:47:58.187Z,2.80
2023-02-13T06:50:38.879Z,2.80
2023-02-13T06:53:11.151Z,2.80
2023-02-13T06:55:42.044Z,2.80
2023-02-13T06:58:12.277Z,2.80
2023-02-13T07:00:44.265Z,2.80
2023-02-13T07:03:15.591Z,2.80
2023-02-13T07:05:47.879Z,2.80
2023-02-13T07:08:20.413Z,2.80
2023-02-13T07:10:50.550Z,2.80
2023-02-13T07:13:20.969Z,2.80
2023-02-13T07:15:51.731Z,2.80
2023-02-13T07:18:19.217Z,2.80
2023-02-13T07:20:46.278Z,2.80
2023-02-13T07:23:14.150Z,2.80
2023-02-13T07:25:46.542Z,2.90
2023-02-13T07:28:13.899Z,2.80
2023-02-13T07:30:41.097Z,2.80
2023-02-13T07:33:19.218Z,2.80
2023-02-13T07:35:48.160Z,2.80
2023-02-13T07:38:17.758Z,2.80
2023-02-13T07:40:49.075Z,2.80
2023-02-13T07:43:16.218Z,2.90
2023-02-13T07:45:45.669Z,2.90
2023-02-13T07:48:12.752Z,2.90
2023-02-13T07:50:40.375Z,2.90
2023-02-13T07:53:07.506Z,3.00
2023-02-13T07:55:45.898Z,3.00
2023-02-13T07:58:20.333Z,3.00
2023-02-13T08:00:50.013Z,3.00
2023-02-13T08:03:22.381Z,3.00
2023-02-13T08:05:54.534Z,3.00
2023-02-13T08:08:26.707Z,3.00
2023-02-13T08:11:15.586Z,3.00
2023-02-13T08:13:44.173Z,3.10
2023-02-13T08:16:21.553Z,3.10
2023-02-13T08:18:50.934Z,3.20
2023-02-13T08:21:21.693Z,3.20
2023-02-13T08:23:51.099Z,3.20
2023-02-13T08:26:23.494Z,3.20
2023-02-13T08:28:56.173Z,3.20
2023-02-13T08:31:32.088Z,3.30
2023-02-13T08:34:01.859Z,3.30
2023-02-13T08:36:29.244Z,3.30
2023-02-13T08:38:57.023Z,3.40
2023-02-13T08:41:25.137Z,3.40
2023-02-13T08:43:59.685Z,3.40
2023-02-13T08:46:29.651Z,3.50
2023-02-13T08:49:03.785Z,3.50
2023-02-13T08:51:30.892Z,3.50
2023-02-13T08:53:58.336Z,3.60
2023-02-13T08:56:28.658Z,3.70
2023-02-13T08:58:56.381Z,3.80
2023-02-13T09:01:24.361Z,3.80
2023-02-13T09:03:51.802Z,3.90
2023-02-13T09:06:19.376Z,3.90
2023-02-13T09:08:46.352Z,4.00
2023-02-13T09:11:22.329Z,4.00
2023-02-13T09:13:55.520Z,4.10
2023-02-13T09:16:25.417Z,4.20
2023-02-13T09:18:52.877Z,4.30
2023-02-13T09:21:26.066Z,4.30
2023-02-13T09:23:55.941Z,4.30
2023-02-13T09:26:23.075Z,4.40
2023-02-13T09:28:50.525Z,4.50
2023-02-13T09:31:29.200Z,4.60
2023-02-13T09:33:58.414Z,4.70
2023-02-13T09:37:08.004Z,4.70
2023-02-13T09:39:37.462Z,4.70
2023-02-13T09:42:13.458Z,4.90
2023-02-13T09:44:45.526Z,4.90
2023-02-13T09:47:21.236Z,5.00
2023-02-13T09:50:01.389Z,5.10
2023-02-13T09:52:33.461Z,5.10
2023-02-13T09:55:09.459Z,5.10
2023-02-13T09:57:43.760Z,5.20
2023-02-13T10:00:25.833Z,5.20
2023-02-13T10:02:58.925Z,5.30
2023-02-13T10:05:38.273Z,5.30
2023-02-13T10:08:16.514Z,5.30
2023-02-13T10:10:52.552Z,5.30
2023-02-13T10:14:04.570Z,5.40
2023-02-13T10:16:36.622Z,5.40
2023-02-13T10:19:21.934Z,5.50
2023-02-13T10:22:14.275Z,5.50
2023-02-13T10:26:00.214Z,5.50
2023-02-13T10:29:15.409Z,5.40
2023-02-13T10:31:51.661Z,5.60
2023-02-13T10:34:27.430Z,5.60
2023-02-13T10:37:03.208Z,5.60
2023-02-13T10:39:39.041Z,5.60
2023-02-13T10:42:19.285Z,5.70
2023-02-13T10:45:10.973Z,5.70
2023-02-13T10:47:59.350Z,5.80
2023-02-13T10:50:46.745Z,5.80
2023-02-13T10:54:02.436Z,5.80
2023-02-13T10:56:40.056Z,5.80
2023-02-13T10:59:29.904Z,5.90
2023-02-13T11:02:19.143Z,5.90
2023-02-13T11:04:54.692Z,5.90
2023-02-13T11:07:27.637Z,5.90
2023-02-13T11:10:03.743Z,6.00
2023-02-13T11:12:34.999Z,6.00
2023-02-13T11:19:40.516Z,6.00
2023-02-13T11:22:16.873Z,6.10
2023-02-13T11:25:13.488Z,6.10
2023-02-13T11:27:41.057Z,6.10
2023-02-13T11:30:33.155Z,6.10
2023-02-13T11:33:28.184Z,6.10
2023-02-13T11:36:06.885Z,6.20
2023-02-13T11:38:34.186Z,6.20
2023-02-13T11:41:10.034Z,6.30
2023-02-13T11:43:55.080Z,6.20
2023-02-13T11:46:48.107Z,6.30
2023-02-13T11:49:48.540Z,6.40
2023-02-13T11:52:33.972Z,6.40
2023-02-13T11:55:25.750Z,6.50
2023-02-13T11:58:03.470Z,6.50
2023-02-13T12:00:48.553Z,6.50
2023-02-13T12:03:48.273Z,6.60
2023-02-13T12:06:22.258Z,6.60
2023-02-13T12:08:53.087Z,6.60
2023-02-13T12:11:36.297Z,6.70
2023-02-13T12:14:12.926Z,6.60
2023-02-13T12:16:53.253Z,6.60
2023-02-13T12:19:37.118Z,6.70
2023-02-13T12:22:28.082Z,6.80
2023-02-13T12:24:59.529Z,6.80
2023-02-13T12:27:57.454Z,6.90
2023-02-13T12:30:37.486Z,6.90
2023-02-13T12:33:25.638Z,6.90
2023-02-13T12:36:04.919Z,6.90
2023-02-13T12:38:54.342Z,6.90
2023-02-13T12:41:39.357Z,6.80
2023-02-13T12:44:24.956Z,6.90
2023-02-13T12:47:23.987Z,7.00
2023-02-13T12:50:09.198Z,6.90
2023-02-13T12:53:12.966Z,7.00
2023-02-13T12:55:43.774Z,6.90
2023-02-13T12:58:35.107Z,6.90
2023-02-13T13:01:52.817Z,7.00
2023-02-13T13:04:31.953Z,7.20
2023-02-13T13:07:33.297Z,7.40
2023-02-13T13:10:37.136Z,7.30
2023-02-13T13:13:18.089Z,7.30
2023-02-13T13:16:16.741Z,7.20
2023-02-13T13:19:12.084Z,7.20
2023-02-13T13:21:44.832Z,7.10
2023-02-13T13:24:31.245Z,7.20
2023-02-13T13:27:01.027Z,7.20
2023-02-13T13:29:56.172Z,7.20
2023-02-13T13:32:24.432Z,7.10
2023-02-13T13:34:53.057Z,7.10
2023-02-13T13:37:20.381Z,7.10
2023-02-13T13:40:11.161Z,7.20
2023-02-13T13:42:51.103Z,7.20
2023-02-13T13:45:18.218Z,7.30
2023-02-13T13:47:53.165Z,7.30
2023-02-13T13:50:28.219Z,7.30
2023-02-13T13:53:26.220Z,7.20
2023-02-13T13:55:54.489Z,7.20
2023-02-13T13:58:33.910Z,7.20
2023-02-13T14:01:27.160Z,7.10
2023-02-13T14:04:03.740Z,7.10
2023-02-13T14:06:46.067Z,7.10
2023-02-13T14:09:28.185Z,7.20
2023-02-13T14:12:19.183Z,7.10
2023-02-13T14:14:47.252Z,7.10
2023-02-13T14:17:27.985Z,7.10
2023-02-13T14:19:55.238Z,7.20
2023-02-13T14:22:34.437Z,7.20
2023-02-13T14:25:26.000Z,7.20
2023-02-13T14:28:03.535Z,7.10
2023-02-13T14:30:40.580Z,7.20
2023-02-13T14:33:22.683Z,7.20
2023-02-13T14:36:09.471Z,7.20
2023-02-13T14:38:37.805Z,7.20
2023-02-13T14:41:07.398Z,7.10
2023-02-13T14:43:52.984Z,7.10
2023-02-13T14:46:29.720Z,7.10
2023-02-13T14:49:12.113Z,7.10
2023-02-13T14:51:46.570Z,7.10
2023-02-13T14:54:38.981Z,7.00
2023-02-13T14:57:21.952Z,7.00
2023-02-13T14:59:56.055Z,7.00
2023-02-13T15:02:28.620Z,7.00
2023-02-13T15:05:04.262Z,7.00
2023-02-13T15:07:39.526Z,7.00
2023-02-13T15:10:35.970Z,6.90
2023-02-13T15:13:06.321Z,6.90
2023-02-13T15:15:36.363Z,6.90
2023-02-13T15:18:10.736Z,6.90
2023-02-13T15:20:42.550Z,6.90
2023-02-13T15:23:23.516Z,6.90
2023-02-13T15:25:57.995Z,6.90
2023-02-13T15:28:26.025Z,6.80
2023-02-13T15:31:19.625Z,6.90
2023-02-13T15:33:48.105Z,6.80
2023-02-13T15:36:20.836Z,6.80
2023-02-13T15:38:49.039Z,6.70
2023-02-13T15:41:22.971Z,6.70
2023-02-13T15:43:53.096Z,6.70
2023-02-13T15:46:26.293Z,6.70
2023-02-13T15:48:56.008Z,6.70
2023-02-13T15:51:31.396Z,6.60
2023-02-13T15:54:02.004Z,6.60
2023-02-13T15:56:31.132Z,6.60
2023-02-13T15:59:00.839Z,6.60
2023-02-13T16:01:29.064Z,6.50
2023-02-13T16:04:04.533Z,6.50
2023-02-13T16:06:34.053Z,6.50
2023-02-13T16:09:01.892Z,6.40
2023-02-13T16:11:33.680Z,6.40
2023-02-13T16:14:09.294Z,6.40
2023-02-13T16:17:02.148Z,6.40
2023-02-13T16:19:34.341Z,6.30
2023-02-13T16:22:16.101Z,6.30
2023-02-13T16:24:51.052Z,6.30
2023-02-13T16:27:32.467Z,6.30
2023-02-13T16:30:34.389Z,6.30
2023-02-13T16:34:15.216Z,6.30
2023-02-13T16:36:42.834Z,6.20
2023-02-13T16:39:44.143Z,6.20
2023-02-13T16:42:55.066Z,6.10
2023-02-13T16:45:28.062Z,6.10
2023-02-13T16:48:17.949Z,6.10
2023-02-13T16:57:38.171Z,6.10
2023-02-13T17:00:26.512Z,6.20
2023-02-13T17:03:23.170Z,6.10
2023-02-13T17:09:42.287Z,6.10
2023-02-13T17:15:55.304Z,6.10
2023-02-13T17:18:35.873Z,6.20
2023-02-13T17:22:44.857Z,6.10
2023-02-13T17:24:48.889Z,6.10
2023-02-13T17:27:34.697Z,6.10
2023-02-13T17:30:33.765Z,6.10
2023-02-13T17:33:31.132Z,6.20
2023-02-13T17:36:15.063Z,6.20
2023-02-13T17:38:42.380Z,6.20
2023-02-13T17:41:15.918Z,6.20
2023-02-13T17:43:43.163Z,6.20
2023-02-13T17:46:10.802Z,6.20
2023-02-13T17:48:38.065Z,6.20
2023-02-13T17:51:12.809Z,6.20
2023-02-13T17:53:42.418Z,6.10
2023-02-13T17:56:09.980Z,6.10
2023-02-13T17:58:40.958Z,6.20
2023-02-13T18:01:12.323Z,6.20
2023-02-13T18:03:43.348Z,6.10
2023-02-13T18:06:23.782Z,6.10
2023-02-13T18:08:53.491Z,6.10
2023-02-13T18:11:26.023Z,6.10
2023-02-13T18:13:57.547Z,6.10
2023-02-13T18:16:30.075Z,6.10
2023-02-13T18:18:57.964Z,6.00
2023-02-13T18:21:29.863Z,6.00
2023-02-13T18:23:56.890Z,6.00
2023-02-13T18:26:24.326Z,6.00
2023-02-13T18:28:52.565Z,6.00
2023-02-13T18:31:20.030Z,6.00
2023-02-13T18:33:47.785Z,6.00
2023-02-13T18:36:15.148Z,6.00
2023-02-13T18:38:43.013Z,6.00
2023-02-13T18:41:10.203Z,6.00
2023-02-13T18:43:39.196Z,6.00
2023-02-13T18:46:06.468Z,6.00
2023-02-13T18:48:35.402Z,5.90
2023-02-13T18:51:02.636Z,5.90
2023-02-13T18:53:31.126Z,6.00
2023-02-13T18:56:06.186Z,6.00
2023-02-13T18:58:34.053Z,6.00
2023-02-13T19:01:12.768Z,6.00
2023-02-13T19:06:23.780Z,6.00
2023-02-13T19:08:51.718Z,6.00
2023-02-13T19:11:23.448Z,5.90
2023-02-13T19:13:58.937Z,6.00
2023-02-13T19:16:26.434Z,6.10
2023-02-13T19:18:55.640Z,6.00
2023-02-13T19:21:24.840Z,6.00
2023-02-13T19:23:52.293Z,6.00
2023-02-13T19:26:22.113Z,6.00
2023-02-13T19:28:49.931Z,6.10
2023-02-13T19:31:19.728Z,6.10
2023-02-13T19:33:47.241Z,6.20
2023-02-13T19:36:19.421Z,6.20
2023-02-13T19:38:47.952Z,6.20
2023-02-13T19:41:18.871Z,6.20
2023-02-13T19:43:53.732Z,6.20
2023-02-13T19:46:25.859Z,6.20
2023-02-13T19:48:59.867Z,6.20
2023-02-13T19:51:46.525Z,6.20
2023-02-13T19:54:19.075Z,6.20
2023-02-13T19:57:21.266Z,6.20
2023-02-13T19:59:49.404Z,6.30
2023-02-13T20:02:19.973Z,6.30
2023-02-13T20:04:50.022Z,6.30
2023-02-13T20:07:46.029Z,6.20
2023-02-13T20:10:25.387Z,6.30
2023-02-13T20:13:11.986Z,6.20
2023-02-13T20:15:49.944Z,6.20
2023-02-13T20:18:19.807Z,6.30
2023-02-13T20:20:47.454Z,6.30
2023-02-13T20:23:17.084Z,6.30
2023-02-13T20:25:44.749Z,6.20
2023-02-13T20:28:12.131Z,6.30
2023-02-13T20:30:43.857Z,6.20
2023-02-13T20:33:11.656Z,6.30
2023-02-13T20:35:38.969Z,6.30
2023-02-13T20:38:06.305Z,6.30
2023-02-13T20:40:34.622Z,6.20
2023-02-13T20:43:02.106Z,6.20
2023-02-13T20:45:29.716Z,6.20
2023-02-13T20:47:57.258Z,6.20
2023-02-13T20:50:26.566Z,6.20
2023-02-13T20:52:54.710Z,6.20
2023-02-13T20:55:21.857Z,6.20
2023-02-13T20:57:49.073Z,6.20
2023-02-13T21:00:16.502Z,6.20
2023-02-13T21:02:43.588Z,6.20
2023-02-13T21:05:10.882Z,6.10
2023-02-13T21:07:39.497Z,6.10
2023-02-13T21:10:07.085Z,6.10
2023-02-13T21:12:35.048Z,6.10
2023-02-13T21:15:02.190Z,6.10
2023-02-13T21:17:29.483Z,6.10
2023-02-13T21:19:56.669Z,6.10
2023-02-13T21:22:23.748Z,6.00
2023-02-13T21:24:51.551Z,6.00
2023-02-13T21:27:24.192Z,6.00
2023-02-13T21:29:52.094Z,5.90
2023-02-13T21:32:19.290Z,5.90
2023-02-13T21:34:47.530Z,5.90
2023-02-13T21:37:14.718Z,5.90
2023-02-13T21:39:44.997Z,5.90
2023-02-13T21:42:12.388Z,5.90
2023-02-13T21:44:40.578Z,5.90
2023-02-13T21:47:07.964Z,5.90
2023-02-13T21:49:36.045Z,5.90
2023-02-13T21:52:03.864Z,5.90
2023-02-13T21:54:30.907Z,5.90
2023-02-13T21:56:58.260Z,5.90
2023-02-13T21:59:25.537Z,5.90
2023-02-13T22:01:54.691Z,5.90
2023-02-13T22:04:22.163Z,6.00
2023-02-13T22:06:51.481Z,6.00
2023-02-13T22:09:22.097Z,6.00
2023-02-13T22:11:51.465Z,5.90
2023-02-13T22:14:19.266Z,5.90
2023-02-13T22:16:49.671Z,5.90
2023-02-13T22:19:17.054Z,5.90
2023-02-13T22:21:45.158Z,5.90
2023-02-13T22:24:12.732Z,5.90
2023-02-13T22:26:43.025Z,5.90
2023-02-13T22:29:12.223Z,5.90
2023-02-13T22:31:40.125Z,5.80
2023-02-13T22:34:07.290Z,5.80
2023-02-13T22:36:39.028Z,5.80
2023-02-13T22:39:09.566Z,5.80
2023-02-13T22:41:36.973Z,5.80
2023-02-13T22:44:04.491Z,5.80
2023-02-13T22:46:33.400Z,5.80
2023-02-13T22:49:01.339Z,5.80
2023-02-13T22:51:34.980Z,5.80
2023-02-13T22:54:02.446Z,5.80
2023-02-13T22:56:30.873Z,5.80
2023-02-13T22:58:58.610Z,5.80
2023-02-13T23:01:28.155Z,5.70
2023-02-13T23:03:56.971Z,5.70
2023-02-13T23:06:25.028Z,5.70
2023-02-13T23:08:53.820Z,5.70
2023-02-13T23:11:45.089Z,5.70
2023-02-13T23:14:14.202Z,5.70
2023-02-13T23:17:00.450Z,5.70
2023-02-13T23:19:27.952Z,5.70
2023-02-13T23:21:55.011Z,5.70
2023-02-13T23:24:22.432Z,5.70
2023-02-13T23:26:49.475Z,5.70
2023-02-13T23:29:16.615Z,5.60
2023-02-13T23:31:43.934Z,5.60
2023-02-13T23:34:11.235Z,5.70
2023-02-13T23:36:38.576Z,5.60
2023-02-13T23:39:05.876Z,5.60
2023-02-13T23:41:32.992Z,5.60
2023-02-13T23:43:59.984Z,5.50
2023-02-13T23:46:27.430Z,5.50
2023-02-13T23:48:54.582Z,5.50
2023-02-13T23:51:24.380Z,5.50
2023-02-13T23:53:55.137Z,5.40
2023-02-13T23:56:23.780Z,5.40
2023-02-13T23:58:51.047Z,5.40
